Bloomington, CA (92316)

4:25 AM PST on December 27, 2014 (GMT -0800)
Cat Crossing Ink | Change Station
CLOSE
Current Station
Personal Weather Station
Location: Rialto, CA
Elevation: 1125 ft
Nearby Weather Stations

Elev 1125 ft 34.08 °N, 117.38 °W | Updated 4 seconds ago

Clear
Clear
46.0 °F
Feels Like 41 °F
N
11.3
Wind Variable Wind from NW
Gusts 19.6 mph

Today
High -- | Low -- °F
--% Chance of Precip.
Yesterday
High -- | Low -- °F
Precip. -- in
6:53 AM 4:47 PM
Waxing Crescent, 36% visible
Pressure 30.22 in
Visibility 10.0 miles
Clouds Clear
Windchill 41 °F
Dew Point 14 °F
Humidity 27%
Rainfall 0.00 in
Snow Depth Not available.
UV 0 out of 12
Pollen 7.30 out of 12
Air Quality Not available.
Flu Activity Not available.
METAR KRAL 271153Z AUTO 17008KT 10SM CLR 09/M11 A3025 RMK AO2 PK WND 03026/1121 SLP234 T00941111 10111 20089 53017

More Conditions Fewer Conditions

Pressure 30.22 in
Visibility 10.0 miles
Clouds Clear
Windchill 41 °F
Dew Point 14 °F
Humidity 27%
Rainfall 0.00 in
Snow Depth Not available.
UV 0 out of 12
Pollen 7.30 out of 12
Air Quality Not available.
Flu Activity Not available.
METAR KRAL 271153Z AUTO 17008KT 10SM CLR 09/M11 A3025 RMK AO2 PK WND 03026/1121 SLP234 T00941111 10111 20089 53017

More Conditions Fewer Conditions

10-Day Weather Forecast

Almanac

Astronomy

Dec. 27, 2014 Rise Set
Actual Time
Civil Twilight
Nautical Twilight
Astronomical Twilight
Moon
Length of Visible Light
Length of Day
Tomorrow will be .
, % of the Moon is Illuminated

Today's Extremes

State Highs State Lows

Community

WunderPhotos

Upload Photos

1,780,886 photos uploaded!

WunderBlogs® & News

Nearby

Air Quality

  Air Quality AQ Index Pollutant
Not available.

Snow Depth

Station Depth Elevation

Earthquake Activity

City Distance Mag. Time & Date
Minimum magnitude displayed is 2.5.

Coastal Water Temperatures

Place Temperature

Nearby Weather Stations